createdAt,value
2018-04-01T00:00:03.490Z,1.53
2018-04-01T00:02:30.604Z,1.43
2018-04-01T00:04:57.717Z,1.70
2018-04-01T00:07:24.833Z,1.77
2018-04-01T00:09:51.919Z,1.20
2018-04-01T00:12:19.392Z,1.50
2018-04-01T00:14:46.496Z,1.60
2018-04-01T00:17:13.600Z,2.00
2018-04-01T00:19:40.731Z,1.67
2018-04-01T00:22:07.819Z,1.90
2018-04-01T00:24:34.943Z,2.33
2018-04-01T00:27:02.112Z,2.17
2018-04-01T00:29:29.216Z,2.30
2018-04-01T00:31:56.685Z,2.73
2018-04-01T00:34:23.786Z,2.30
2018-04-01T00:36:50.882Z,2.60
2018-04-01T00:39:17.937Z,2.30
2018-04-01T00:41:45.032Z,2.40
2018-04-01T00:44:12.176Z,2.97
2018-04-01T00:46:39.263Z,2.43
2018-04-01T00:49:06.345Z,2.47
2018-04-01T00:51:33.433Z,2.57
2018-04-01T00:54:00.550Z,3.10
2018-04-01T00:56:27.709Z,2.90
2018-04-01T00:58:54.800Z,2.93
2018-04-01T01:01:21.910Z,2.57
2018-04-01T01:03:48.969Z,2.57
2018-04-01T01:06:16.098Z,2.30
2018-04-01T01:08:43.203Z,2.73
2018-04-01T01:11:10.335Z,2.50
2018-04-01T01:13:42.055Z,2.40
2018-04-01T01:16:09.192Z,2.60
2018-04-01T01:18:36.286Z,2.20
2018-04-01T01:21:03.390Z,2.43
2018-04-01T01:23:30.452Z,2.07
2018-04-01T01:25:57.552Z,2.00
2018-04-01T01:28:24.643Z,2.07
2018-04-01T01:30:51.764Z,1.90
2018-04-01T01:33:18.843Z,1.83
2018-04-01T01:35:45.945Z,1.83
2018-04-01T01:38:13.239Z,2.10
2018-04-01T01:40:40.385Z,1.87
2018-04-01T01:43:07.466Z,1.80
2018-04-01T01:45:34.551Z,2.00
2018-04-01T01:48:01.613Z,1.77
2018-04-01T01:50:28.709Z,1.97
2018-04-01T01:52:55.773Z,2.17
2018-04-01T01:55:22.820Z,1.87
2018-04-01T01:57:49.912Z,1.90
2018-04-01T02:00:17.036Z,2.10
2018-04-01T02:02:44.145Z,2.10
2018-04-01T02:05:11.207Z,2.20
2018-04-01T02:07:38.309Z,2.07
2018-04-01T02:10:05.412Z,2.23
2018-04-01T02:12:32.506Z,1.90
2018-04-01T02:14:59.571Z,2.10
2018-04-01T02:17:27.042Z,2.27
2018-04-01T02:19:54.112Z,2.00
2018-04-01T02:22:21.214Z,2.50
2018-04-01T02:24:48.311Z,1.83
2018-04-01T02:27:15.422Z,1.90
2018-04-01T02:29:42.475Z,2.07
2018-04-01T02:32:09.591Z,1.67
2018-04-01T02:34:37.086Z,1.90
2018-04-01T02:37:04.186Z,2.10
2018-04-01T02:39:31.267Z,2.00
2018-04-01T02:41:58.370Z,2.07
2018-04-01T02:44:25.469Z,1.80
2018-04-01T02:46:52.586Z,1.50
2018-04-01T02:49:19.646Z,1.73
2018-04-01T02:51:46.763Z,1.90
2018-04-01T02:54:13.844Z,1.87
2018-04-01T02:56:40.963Z,1.90
2018-04-01T02:59:08.102Z,1.73
2018-04-01T03:01:35.219Z,1.87
2018-04-01T03:04:02.339Z,1.80
2018-04-01T03:06:29.399Z,2.00
2018-04-01T03:08:56.474Z,1.90
2018-04-01T03:11:23.557Z,1.80
2018-04-01T03:13:50.644Z,2.17
2018-04-01T03:16:17.730Z,1.90
2018-04-01T03:18:44.822Z,2.17
2018-04-01T03:21:11.881Z,2.10
2018-04-01T03:23:38.985Z,2.13
2018-04-01T03:26:06.103Z,2.13
2018-04-01T03:28:33.230Z,2.07
2018-04-01T03:31:00.287Z,2.03
2018-04-01T03:33:27.414Z,2.30
2018-04-01T03:35:54.470Z,1.90
2018-04-01T03:38:21.563Z,1.97
2018-04-01T03:40:48.686Z,1.90
2018-04-01T03:43:15.759Z,2.10
2018-04-01T03:45:42.862Z,2.10
2018-04-01T03:48:09.939Z,2.27
2018-04-01T03:50:37.015Z,2.20
2018-04-01T03:53:04.106Z,2.57
2018-04-01T03:55:31.237Z,2.43
2018-04-01T03:57:58.349Z,2.30
2018-04-01T04:00:25.804Z,2.00
2018-04-01T04:02:53.302Z,2.17
2018-04-01T04:05:20.369Z,2.23
2018-04-01T04:07:47.459Z,2.10
2018-04-01T04:10:14.533Z,1.80
2018-04-01T04:12:41.618Z,2.03
2018-04-01T04:15:08.730Z,2.10
2018-04-01T04:17:35.798Z,2.17
2018-04-01T04:20:02.921Z,2.40
2018-04-01T04:22:29.995Z,2.20
2018-04-01T04:24:57.098Z,2.53
2018-04-01T04:27:24.553Z,2.47
2018-04-01T04:29:51.637Z,2.23
2018-04-01T04:32:18.765Z,2.50
2018-04-01T04:34:45.852Z,2.77
2018-04-01T04:37:12.949Z,2.63
2018-04-01T04:39:40.066Z,2.13
2018-04-01T04:42:07.117Z,2.30
2018-04-01T04:44:34.221Z,2.40
2018-04-01T04:47:01.289Z,2.60
2018-04-01T04:49:28.395Z,2.70
2018-04-01T04:51:55.459Z,2.70
2018-04-01T04:54:30.538Z,2.67
2018-04-01T04:56:57.598Z,2.70
2018-04-01T04:59:24.703Z,3.00
2018-04-01T05:01:51.768Z,3.03
2018-04-01T05:04:18.865Z,3.20
2018-04-01T05:06:45.931Z,3.37
2018-04-01T05:09:13.018Z,3.50
2018-04-01T05:11:40.131Z,2.70
2018-04-01T05:14:07.219Z,3.30
2018-04-01T05:16:34.309Z,3.43
2018-04-01T05:19:01.403Z,3.57
2018-04-01T05:21:28.502Z,3.10
2018-04-01T05:23:55.607Z,3.13
2018-04-01T05:26:22.706Z,3.37
2018-04-01T05:28:49.807Z,3.10
2018-04-01T05:31:16.900Z,2.83
2018-04-01T05:33:43.985Z,3.30
2018-04-01T05:36:11.103Z,2.77
2018-04-01T05:38:38.222Z,3.00
2018-04-01T05:41:05.302Z,3.20
2018-04-01T05:43:32.369Z,3.20
2018-04-01T05:45:59.471Z,3.20
2018-04-01T05:48:26.565Z,3.07
2018-04-01T05:50:53.668Z,2.90
2018-04-01T05:53:20.725Z,3.23
2018-04-01T05:55:47.814Z,2.80
2018-04-01T05:58:14.919Z,2.53
2018-04-01T06:00:42.030Z,3.03
2018-04-01T06:03:09.550Z,2.73
2018-04-01T06:05:36.658Z,2.40
2018-04-01T06:08:03.745Z,2.97
2018-04-01T06:10:30.820Z,3.00
2018-04-01T06:12:57.927Z,3.10
2018-04-01T06:15:25.033Z,3.37
2018-04-01T06:17:52.103Z,3.20
2018-04-01T06:20:19.173Z,3.27
2018-04-01T06:22:46.306Z,3.40
2018-04-01T06:25:13.449Z,3.10
2018-04-01T06:27:40.552Z,3.37
2018-04-01T06:30:07.642Z,3.20
2018-04-01T06:32:34.741Z,2.90
2018-04-01T06:35:01.827Z,3.37
2018-04-01T06:37:28.926Z,2.93
2018-04-01T06:39:56.082Z,2.83
2018-04-01T06:42:23.145Z,3.30
2018-04-01T06:44:50.612Z,3.20
2018-04-01T06:47:17.736Z,3.13
2018-04-01T06:49:44.806Z,3.40
2018-04-01T06:52:11.907Z,3.60
2018-04-01T06:54:38.953Z,3.53
2018-04-01T06:57:06.070Z,3.63
2018-04-01T06:59:33.130Z,3.30
2018-04-01T07:02:00.233Z,3.80
2018-04-01T07:04:27.302Z,3.30
2018-04-01T07:06:54.423Z,3.63
2018-04-01T07:09:21.535Z,4.00
2018-04-01T07:11:49.019Z,3.90
2018-04-01T07:14:16.104Z,3.87
2018-04-01T07:16:43.268Z,3.37
2018-04-01T07:19:10.393Z,3.77
2018-04-01T07:21:37.540Z,3.37
2018-04-01T07:24:04.672Z,3.60
2018-04-01T07:26:31.750Z,3.30
2018-04-01T07:28:58.877Z,3.10
2018-04-01T07:31:25.981Z,3.30
2018-04-01T07:33:53.085Z,3.40
2018-04-01T07:36:20.203Z,2.97
2018-04-01T07:38:47.279Z,3.00
2018-04-01T07:41:14.360Z,3.10
2018-04-01T07:43:41.458Z,2.73
2018-04-01T07:46:08.551Z,3.33
2018-04-01T07:48:35.684Z,3.17
2018-04-01T07:51:04.479Z,2.80
2018-04-01T07:53:32.528Z,2.67
2018-04-01T07:55:59.661Z,3.17
2018-04-01T07:58:26.765Z,2.60
2018-04-01T08:00:54.104Z,2.97
2018-04-01T08:03:21.678Z,2.17
2018-04-01T08:05:49.175Z,1.97
2018-04-01T08:08:17.018Z,2.07
2018-04-01T08:10:44.413Z,2.50
2018-04-01T08:13:11.485Z,2.23
2018-04-01T08:15:39.222Z,2.40
2018-04-01T08:18:06.318Z,2.60
2018-04-01T08:20:33.348Z,2.00
2018-04-01T08:23:00.394Z,2.40
2018-04-01T08:25:27.426Z,2.23
2018-04-01T08:27:54.482Z,2.17
2018-04-01T08:30:21.510Z,2.50
2018-04-01T08:32:48.566Z,2.30
2018-04-01T08:35:15.599Z,2.40
2018-04-01T08:37:42.628Z,2.40
2018-04-01T08:40:09.690Z,2.30
2018-04-01T08:42:36.741Z,2.47
2018-04-01T08:45:05.707Z,2.20
2018-04-01T08:47:33.264Z,2.20
2018-04-01T08:50:01.114Z,2.10
2018-04-01T08:52:28.209Z,2.10
2018-04-01T08:54:55.277Z,2.30
2018-04-01T08:57:27.071Z,2.07
2018-04-01T08:59:54.515Z,2.50
2018-04-01T09:02:21.553Z,2.27
2018-04-01T09:04:49.018Z,2.00
2018-04-01T09:07:16.074Z,2.40
2018-04-01T09:09:43.176Z,2.90
2018-04-01T09:12:16.759Z,2.70
2018-04-01T09:14:44.423Z,2.50
2018-04-01T09:17:19.148Z,2.80
2018-04-01T09:19:47.549Z,2.60
2018-04-01T09:22:18.018Z,2.83
2018-04-01T09:24:46.306Z,2.87
2018-04-01T09:27:14.623Z,3.00
2018-04-01T09:29:42.206Z,2.97
2018-04-01T09:32:09.623Z,2.77
2018-04-01T09:34:37.537Z,3.30
2018-04-01T09:37:04.607Z,3.20
2018-04-01T09:39:34.577Z,3.23
2018-04-01T09:42:02.529Z,3.37
2018-04-01T09:44:29.577Z,3.60
2018-04-01T09:47:05.398Z,3.17
2018-04-01T09:49:32.866Z,3.00
2018-04-01T09:51:59.947Z,2.83
2018-04-01T09:54:28.180Z,3.13
2018-04-01T09:56:55.722Z,2.87
2018-04-01T09:59:22.841Z,3.07
2018-04-01T10:01:51.012Z,3.70
2018-04-01T10:04:18.582Z,3.30
2018-04-01T10:06:46.124Z,2.00
2018-04-01T10:09:13.642Z,1.50
2018-04-01T10:11:41.393Z,1.67
2018-04-01T10:14:09.434Z,1.40
2018-04-01T10:16:40.275Z,1.60
2018-04-01T10:19:07.794Z,1.93
2018-04-01T10:21:35.346Z,2.00
2018-04-01T10:24:02.921Z,3.40
2018-04-01T10:26:30.858Z,3.57
2018-04-01T10:28:58.397Z,3.83
2018-04-01T10:31:25.953Z,4.50
2018-04-01T10:33:53.513Z,5.33
2018-04-01T10:36:22.038Z,4.87
2018-04-01T10:38:50.225Z,5.87
2018-04-01T10:41:18.162Z,6.57
2018-04-01T10:43:46.303Z,6.33
2018-04-01T10:46:14.378Z,7.23
2018-04-01T10:48:43.230Z,6.53
2018-04-01T10:51:11.437Z,6.30
2018-04-01T10:53:40.164Z,6.40
2018-04-01T10:56:08.092Z,6.03
2018-04-01T10:58:35.750Z,5.80
2018-04-01T11:01:02.900Z,6.63
2018-04-01T11:03:29.955Z,6.27
2018-04-01T11:05:57.063Z,6.13
2018-04-01T11:08:24.168Z,5.80
2018-04-01T11:10:51.293Z,5.60
2018-04-01T11:13:18.346Z,6.27
2018-04-01T11:15:45.418Z,7.30
2018-04-01T11:18:12.520Z,6.40
2018-04-01T11:20:39.577Z,6.43
2018-04-01T11:23:06.710Z,6.90
2018-04-01T11:25:35.536Z,7.27
2018-04-01T11:28:03.169Z,6.70
2018-04-01T11:30:37.691Z,5.53
2018-04-01T11:33:15.454Z,6.83
2018-04-01T11:35:43.037Z,7.33
2018-04-01T11:38:11.729Z,6.77
2018-04-01T11:40:39.191Z,7.33
2018-04-01T11:43:18.815Z,7.17
2018-04-01T11:45:45.938Z,7.10
2018-04-01T11:48:13.786Z,7.13
2018-04-01T11:50:40.949Z,8.07
2018-04-01T11:53:11.861Z,6.50
2018-04-01T11:55:39.997Z,6.30
2018-04-01T11:58:07.549Z,6.70
2018-04-01T12:00:34.634Z,5.73
2018-04-01T12:03:02.929Z,6.10
2018-04-01T12:05:30.030Z,6.20
2018-04-01T12:07:57.118Z,6.50
2018-04-01T12:10:24.235Z,6.00
2018-04-01T12:12:51.314Z,7.00
2018-04-01T12:15:18.369Z,7.20
2018-04-01T12:17:45.460Z,7.50
2018-04-01T12:20:12.532Z,6.67
2018-04-01T12:22:39.627Z,6.47
2018-04-01T12:25:06.706Z,7.83
2018-04-01T12:27:33.950Z,8.43
2018-04-01T12:30:01.054Z,4.73
2018-04-01T12:32:28.161Z,4.77
2018-04-01T12:34:55.228Z,5.07
2018-04-01T12:37:22.342Z,3.37
2018-04-01T12:39:49.434Z,4.53
2018-04-01T12:42:16.506Z,5.00
2018-04-01T12:44:43.596Z,4.97
2018-04-01T12:47:10.672Z,4.27
2018-04-01T12:49:38.184Z,4.40
2018-04-01T12:52:05.294Z,5.30
2018-04-01T12:54:32.389Z,5.50
2018-04-01T12:56:59.508Z,5.53
2018-04-01T12:59:26.589Z,5.87
2018-04-01T13:01:53.697Z,5.83
2018-04-01T13:04:20.767Z,5.40
2018-04-01T13:06:47.839Z,5.47
2018-04-01T13:09:14.957Z,5.33
2018-04-01T13:11:42.022Z,5.47
2018-04-01T13:14:09.128Z,5.63
2018-04-01T13:16:36.215Z,4.67
2018-04-01T13:19:03.312Z,5.07
2018-04-01T13:21:30.381Z,5.30
2018-04-01T13:23:57.490Z,5.10
2018-04-01T13:26:24.577Z,4.77
2018-04-01T13:28:51.657Z,5.47
2018-04-01T13:31:18.769Z,5.97
2018-04-01T13:33:45.843Z,6.27
2018-04-01T13:36:12.896Z,6.00
2018-04-01T13:38:39.986Z,6.03
2018-04-01T13:41:07.064Z,6.63
2018-04-01T13:43:44.187Z,5.63
2018-04-01T13:46:11.248Z,5.83
2018-04-01T13:48:38.358Z,5.73
2018-04-01T13:51:05.401Z,6.13
2018-04-01T13:53:32.502Z,5.70
2018-04-01T13:56:00.003Z,5.70
2018-04-01T13:58:27.069Z,6.13
2018-04-01T14:00:54.166Z,6.60
2018-04-01T14:03:21.221Z,6.40
2018-04-01T14:05:48.362Z,5.90
2018-04-01T14:08:15.416Z,6.07
2018-04-01T14:10:42.519Z,7.07
2018-04-01T14:13:09.610Z,6.90
2018-04-01T14:15:36.698Z,6.10
2018-04-01T14:18:03.782Z,6.10
2018-04-01T14:20:31.269Z,5.70
2018-04-01T14:22:58.330Z,5.73
2018-04-01T14:25:25.422Z,6.80
2018-04-01T14:27:52.503Z,6.33
2018-04-01T14:30:19.640Z,6.37
2018-04-01T14:32:47.102Z,6.07
2018-04-01T14:35:14.206Z,6.23
2018-04-01T14:37:41.720Z,6.07
2018-04-01T14:40:08.802Z,5.67
2018-04-01T14:42:35.866Z,6.10
2018-04-01T14:45:02.959Z,5.40
2018-04-01T14:47:30.022Z,5.40
2018-04-01T14:49:57.178Z,5.50
2018-04-01T14:52:24.264Z,5.13
2018-04-01T14:54:51.351Z,6.20
2018-04-01T14:57:18.418Z,6.23
2018-04-01T14:59:45.506Z,6.40
2018-04-01T15:02:12.565Z,7.70
2018-04-01T15:04:39.637Z,6.27
2018-04-01T15:07:06.751Z,6.80
2018-04-01T15:09:33.828Z,5.80
2018-04-01T15:12:00.925Z,5.40
2018-04-01T15:14:28.400Z,6.10
2018-04-01T15:16:55.487Z,5.77
2018-04-01T15:19:22.549Z,3.90
2018-04-01T15:21:49.658Z,5.90
2018-04-01T15:24:16.746Z,5.40
2018-04-01T15:26:43.858Z,5.10
2018-04-01T15:29:10.922Z,5.73
2018-04-01T15:31:38.019Z,5.17
2018-04-01T15:34:05.086Z,5.57
2018-04-01T15:36:32.190Z,5.63
2018-04-01T15:39:00.149Z,5.33
2018-04-01T15:41:27.259Z,5.53
2018-04-01T15:43:54.343Z,5.73
2018-04-01T15:46:21.494Z,5.77
2018-04-01T15:48:48.543Z,5.83
2018-04-01T15:51:15.663Z,5.33
2018-04-01T15:53:42.715Z,4.97
2018-04-01T15:56:09.824Z,5.10
2018-04-01T15:58:36.929Z,5.40
2018-04-01T16:01:04.022Z,4.90
2018-04-01T16:03:31.097Z,5.00
2018-04-01T16:05:58.248Z,4.93
2018-04-01T16:08:25.345Z,5.13
2018-04-01T16:10:52.439Z,4.33
2018-04-01T16:13:19.574Z,4.83
2018-04-01T16:15:46.638Z,4.67
2018-04-01T16:18:13.780Z,4.77
2018-04-01T16:20:40.855Z,3.93
2018-04-01T16:23:07.962Z,5.33
2018-04-01T16:25:35.062Z,5.13
2018-04-01T16:28:02.186Z,5.00
2018-04-01T16:30:29.254Z,4.60
2018-04-01T16:32:56.329Z,4.90
2018-04-01T16:35:23.430Z,4.87
2018-04-01T16:37:50.541Z,4.63
2018-04-01T16:40:17.625Z,4.40
2018-04-01T16:42:44.731Z,4.43
2018-04-01T16:45:11.802Z,4.00
2018-04-01T16:47:38.935Z,5.00
2018-04-01T16:50:06.043Z,6.13
2018-04-01T16:52:33.156Z,5.83
2018-04-01T16:55:00.287Z,6.40
2018-04-01T16:57:27.354Z,6.17
2018-04-01T16:59:54.414Z,6.90
2018-04-01T17:02:21.478Z,5.07
2018-04-01T17:04:48.937Z,5.80
2018-04-01T17:07:16.439Z,5.27
2018-04-01T17:09:43.512Z,6.50
2018-04-01T17:12:10.610Z,5.73
2018-04-01T17:14:37.714Z,5.63
2018-04-01T17:17:04.807Z,6.20
2018-04-01T17:19:32.012Z,6.53
2018-04-01T17:21:59.107Z,6.13
2018-04-01T17:24:26.205Z,6.00
2018-04-01T17:26:53.264Z,5.77
2018-04-01T17:29:20.761Z,6.00
2018-04-01T17:31:47.851Z,5.70
2018-04-01T17:34:14.927Z,5.83
2018-04-01T17:36:41.994Z,5.33
2018-04-01T17:39:09.115Z,5.37
2018-04-01T17:41:36.209Z,5.93
2018-04-01T17:44:03.306Z,5.63
2018-04-01T17:46:30.419Z,6.53
2018-04-01T17:48:57.455Z,6.20
2018-04-01T17:51:24.509Z,7.13
2018-04-01T17:53:51.569Z,7.10
2018-04-01T17:56:20.612Z,8.20
2018-04-01T17:58:47.687Z,7.57
2018-04-01T18:01:14.757Z,8.40
2018-04-01T18:03:41.893Z,8.07
2018-04-01T18:06:08.945Z,7.70
2018-04-01T18:08:36.060Z,6.90
2018-04-01T18:11:03.126Z,7.90
2018-04-01T18:13:30.696Z,8.00
2018-04-01T18:15:57.765Z,7.87
2018-04-01T18:18:24.855Z,7.27
2018-04-01T18:20:51.945Z,6.80
2018-04-01T18:23:19.014Z,5.87
2018-04-01T18:25:46.103Z,6.33
2018-04-01T18:28:13.162Z,6.93
2018-04-01T18:30:40.278Z,7.70
2018-04-01T18:33:07.337Z,7.50
2018-04-01T18:35:34.418Z,7.27
2018-04-01T18:38:01.489Z,7.47
2018-04-01T18:40:29.021Z,8.00
2018-04-01T18:42:56.461Z,8.23
2018-04-01T18:45:23.572Z,8.43
2018-04-01T18:47:50.683Z,8.30
2018-04-01T18:50:17.807Z,9.30
2018-04-01T18:52:44.893Z,8.20
2018-04-01T18:55:11.997Z,8.37
2018-04-01T18:57:39.096Z,9.10
2018-04-01T19:00:06.587Z,8.93
2018-04-01T19:02:33.697Z,8.47
2018-04-01T19:05:00.825Z,8.37
2018-04-01T19:07:27.920Z,8.70
2018-04-01T19:09:55.032Z,7.63
2018-04-01T19:12:22.550Z,7.87
2018-04-01T19:14:49.632Z,8.17
2018-04-01T19:17:17.183Z,8.10
2018-04-01T19:19:44.827Z,7.93
2018-04-01T19:22:12.394Z,8.57
2018-04-01T19:24:39.970Z,7.57
2018-04-01T19:27:07.513Z,8.37
2018-04-01T19:29:35.099Z,7.90
2018-04-01T19:32:03.139Z,8.73
2018-04-01T19:34:30.686Z,8.13
2018-04-01T19:36:58.268Z,8.67
2018-04-01T19:39:25.822Z,8.10
2018-04-01T19:41:53.432Z,8.83
2018-04-01T19:44:20.981Z,8.73
2018-04-01T19:46:48.557Z,8.93
2018-04-01T19:49:16.785Z,8.97
2018-04-01T19:51:44.402Z,8.90
2018-04-01T19:54:11.980Z,9.07
2018-04-01T19:56:39.578Z,8.93
2018-04-01T19:59:07.211Z,9.23
2018-04-01T20:01:34.775Z,8.40
2018-04-01T20:04:02.336Z,9.17
2018-04-01T20:06:29.958Z,9.33
2018-04-01T20:08:57.519Z,7.83
2018-04-01T20:11:25.090Z,8.03
2018-04-01T20:13:52.718Z,8.47
2018-04-01T20:16:20.304Z,8.93
2018-04-01T20:18:47.906Z,8.13
2018-04-01T20:21:15.891Z,8.83
2018-04-01T20:23:43.466Z,8.30
2018-04-01T20:26:11.040Z,7.80
2018-04-01T20:28:38.618Z,8.03
2018-04-01T20:31:06.182Z,8.53
2018-04-01T20:33:33.790Z,8.60
2018-04-01T20:36:01.444Z,8.23
2018-04-01T20:38:29.023Z,8.07
2018-04-01T20:40:56.570Z,8.70
2018-04-01T20:43:36.223Z,8.60
2018-04-01T20:46:12.303Z,8.40
2018-04-01T20:48:46.790Z,8.03
2018-04-01T20:53:58.724Z,8.67
2018-04-01T20:56:26.352Z,8.43
2018-04-01T20:58:59.864Z,9.00
2018-04-01T21:01:27.485Z,8.90
2018-04-01T21:03:55.044Z,8.40
2018-04-01T21:06:22.784Z,9.27
2018-04-01T21:08:51.096Z,8.63
2018-04-01T21:11:18.849Z,8.40
2018-04-01T21:13:46.994Z,9.17
2018-04-01T21:16:15.010Z,8.63
2018-04-01T21:18:42.602Z,8.93
2018-04-01T21:21:10.310Z,8.90
2018-04-01T21:23:38.449Z,9.03
2018-04-01T21:26:06.522Z,9.27
2018-04-01T21:28:34.117Z,9.60
2018-04-01T21:31:01.681Z,8.10
2018-04-01T21:33:29.354Z,8.80
2018-04-01T21:35:56.957Z,8.40
2018-04-01T21:38:24.613Z,9.30
2018-04-01T21:40:52.201Z,8.90
2018-04-01T21:43:19.812Z,7.80
2018-04-01T21:45:47.361Z,8.13
2018-04-01T21:48:14.943Z,7.70
2018-04-01T21:50:42.501Z,7.53
2018-04-01T21:53:10.074Z,7.70
2018-04-01T21:55:37.718Z,7.93
2018-04-01T21:58:05.334Z,7.50
2018-04-01T22:00:32.983Z,7.60
2018-04-01T22:03:00.662Z,8.20
2018-04-01T22:05:28.546Z,7.40
2018-04-01T22:07:56.208Z,7.43
2018-04-01T22:10:24.670Z,7.67
2018-04-01T22:12:52.242Z,8.77
2018-04-01T22:15:19.845Z,7.53
2018-04-01T22:17:47.438Z,8.43
2018-04-01T22:20:15.014Z,9.07
2018-04-01T22:22:54.322Z,9.63
2018-04-01T22:25:21.930Z,9.07
2018-04-01T22:27:49.501Z,8.67
2018-04-01T22:30:17.150Z,9.40
2018-04-01T22:32:44.690Z,8.47
2018-04-01T22:35:12.664Z,8.47
2018-04-01T22:37:40.254Z,8.50
2018-04-01T22:40:07.861Z,8.53
2018-04-01T22:42:35.460Z,8.73
2018-04-01T22:45:03.053Z,7.93
2018-04-01T22:47:30.986Z,8.03
2018-04-01T22:49:58.580Z,7.97
2018-04-01T22:52:26.174Z,8.70
2018-04-01T22:54:53.807Z,7.70
2018-04-01T22:57:21.368Z,8.07
2018-04-01T22:59:48.969Z,7.43
2018-04-01T23:02:16.554Z,7.80
2018-04-01T23:04:44.173Z,7.63
2018-04-01T23:07:11.753Z,7.33
2018-04-01T23:09:39.386Z,7.50
2018-04-01T23:12:06.946Z,7.30
2018-04-01T23:14:34.525Z,7.13
2018-04-01T23:17:02.078Z,7.13
2018-04-01T23:19:29.697Z,6.30
2018-04-01T23:21:57.284Z,7.10
2018-04-01T23:24:24.854Z,6.97
2018-04-01T23:26:52.508Z,6.70
2018-04-01T23:29:20.066Z,7.20
2018-04-01T23:31:47.638Z,6.70
2018-04-01T23:34:15.286Z,6.70
2018-04-01T23:36:42.850Z,6.43
2018-04-01T23:39:10.411Z,6.27
2018-04-01T23:41:38.030Z,6.60
2018-04-01T23:44:05.565Z,6.93
2018-04-01T23:46:33.150Z,5.93
2018-04-01T23:49:00.749Z,6.63
2018-04-01T23:51:28.338Z,6.10
2018-04-01T23:53:55.928Z,6.67
2018-04-01T23:56:23.524Z,6.60
2018-04-01T23:58:51.158Z,6.07
